Meteorología y climatología de Navarra
Datos de la estación - Meteo Navarra

Estación de Getadar GN

Altitud 710 m.


Datos desde el 15/01/2020 hasta el 16/01/2020 en horario solar
Los datos son PROVISIONALES

Anterior Página 1 de 1 Siguiente Descargar: Formato para Excel 2000 o superior   Formato csv   Formato para OpenOffice Calc
Fecha Temperatura Humedad relativa Radiación global Insolación Precipitación Vel. viento 10 m Vel. viento 10 m Dir. viento 10 m
ºC % W/m² s l/m² m/s km/h º
15/01/2020 0:00 2.1 79 0.0 0 0.0 0.8 2.9 130
15/01/2020 0:10 2.1 80 0.0 0 0.0 1.1 4.1 133
15/01/2020 0:20 2.3 78 0.0 0 0.0 1.5 5.5 136
15/01/2020 0:30 2.3 77 0.0 0 0.0 1.5 5.3 141
15/01/2020 0:40 2.2 77 0.0 0 0.0 1.3 4.8 140
15/01/2020 0:50 2.3 78 0.0 0 0.0 1.1 4.1 139
15/01/2020 1:00 2.5 77 0.0 0 0.0 1.2 4.1 143
15/01/2020 1:10 2.6 76 0.0 0 0.0 0.9 3.3 136
15/01/2020 1:20 2.3 77 0.0 0 0.0 1.0 3.7 140
15/01/2020 1:30 2.5 77 0.0 0 0.0 1.0 3.6 143
15/01/2020 1:40 2.5 77 0.0 0 0.0 1.3 4.7 152
15/01/2020 1:50 2.9 75 0.0 0 0.0 1.7 6.2 155
15/01/2020 2:00 3.2 75 0.0 0 0.0 2.1 7.6 155
15/01/2020 2:10 3.3 75 0.0 0 0.0 3.3 11.9 163
15/01/2020 2:20 3.4 74 0.0 0 0.0 3.3 11.8 161
15/01/2020 2:30 3.5 74 0.0 0 0.0 2.5 9.1 163
15/01/2020 2:40 3.2 76 0.0 0 0.0 2.6 9.2 155
15/01/2020 2:50 3.3 76 0.0 0 0.0 2.7 9.8 159
15/01/2020 3:00 3.5 75 0.0 0 0.0 2.7 9.6 155
15/01/2020 3:10 3.4 76 0.0 0 0.0 2.2 7.9 152
15/01/2020 3:20 3.5 76 0.0 0 0.0 2.8 10.2 157
15/01/2020 3:30 3.5 76 0.0 0 0.0 3.2 11.7 156
15/01/2020 3:40 3.5 75 0.0 0 0.0 2.8 10.0 152
15/01/2020 3:50 3.4 76 0.0 0 0.0 2.1 7.5 148
15/01/2020 4:00 3.2 76 0.0 0 0.0 1.4 5.1 148
15/01/2020 4:10 3.4 76 0.0 0 0.0 2.8 10.2 154
15/01/2020 4:20 3.6 74 0.0 0 0.0 3.5 12.6 160
15/01/2020 4:30 3.4 75 0.0 0 0.0 2.8 10.1 158
15/01/2020 4:40 3.3 75 0.0 0 0.0 2.6 9.2 154
15/01/2020 4:50 3.5 74 0.0 0 0.0 2.6 9.3 147
15/01/2020 5:00 3.3 76 0.0 0 0.0 1.8 6.3 155
15/01/2020 5:10 2.9 77 0.0 0 0.0 1.3 4.6 144
15/01/2020 5:20 2.6 79 0.0 0 0.0 1.4 5.1 143
15/01/2020 5:30 2.4 80 0.0 0 0.0 1.3 4.6 139
15/01/2020 5:40 2.2 81 0.0 0 0.0 1.4 5.0 144
15/01/2020 5:50 2.0 82 0.0 0 0.0 1.3 4.7 145
15/01/2020 6:00 2.2 81 0.0 0 0.0 1.4 4.9 149
15/01/2020 6:10 2.3 81 0.0 0 0.0 0.4 1.5 149
15/01/2020 6:20 2.3 81 0.0 0 0.0 0.9 3.3 139
15/01/2020 6:30 2.5 80 0.0 0 0.0 1.0 3.5 140
15/01/2020 6:40 2.4 80 0.0 0 0.0 0.2 0.8 149
15/01/2020 6:50 2.5 80 0.0 0 0.0 0.4 1.5 144
15/01/2020 7:00 2.3 81 0.0 0 0.0 0.4 1.6 155
15/01/2020 7:10 1.8 83 0.0 0 0.0 0.9 3.4 352
15/01/2020 7:20 1.9 83 0.0 0 0.0 1.2 4.3 22
15/01/2020 7:30 2.6 79 0.3 0 0.0 0.7 2.4 127
15/01/2020 7:40 2.3 80 10.3 0 0.0 0.3 1.2 161
15/01/2020 7:50 2.5 80 30.2 282 0.0 0.3 1.2 171
15/01/2020 8:00 2.6 79 61.9 600 0.0 0.2 0.6 149
15/01/2020 8:10 3.1 77 99.4 600 0.0 0.1 0.3 159
15/01/2020 8:20 3.5 77 92.0 600 0.0 0.3 1.1 179
15/01/2020 8:30 4.1 74 64.7 238 0.0 0.8 2.8 155
15/01/2020 8:40 4.2 75 66.6 22 0.0 0.6 2.2 132
15/01/2020 8:50 4.3 75 47.2 0 0.0 0.3 1.0 133
15/01/2020 9:00 4.3 75 46.0 0 0.0 0.1 0.2 285
15/01/2020 9:10 4.3 75 44.3 0 0.0 0.4 1.5 116
15/01/2020 9:20 4.6 77 43.3 0 0.0 0.6 2.2 135
15/01/2020 9:30 4.8 76 47.6 0 0.0 1.0 3.7 159
15/01/2020 9:40 4.9 76 62.2 0 0.0 1.4 5.1 163
15/01/2020 9:50 4.9 76 87.5 0 0.0 1.6 5.8 159
15/01/2020 10:00 5.1 76 98.1 0 0.0 1.0 3.6 159
15/01/2020 10:10 5.1 76 109.2 0 0.0 1.3 4.8 142
15/01/2020 10:20 5.4 75 133.0 0 0.0 1.7 6.2 149
15/01/2020 10:30 5.6 74 167.2 0 0.0 1.6 5.7 145
15/01/2020 10:40 5.7 74 164.4 0 0.0 1.5 5.5 148
15/01/2020 10:50 5.8 74 136.8 0 0.0 1.8 6.6 147
15/01/2020 11:00 6.0 74 129.5 0 0.0 2.3 8.1 156
15/01/2020 11:10 6.1 74 162.5 0 0.0 1.9 6.9 155
15/01/2020 11:20 6.2 73 186.6 0 0.0 3.4 12.2 160
15/01/2020 11:30 6.4 73 202.0 0 0.0 3.1 11.2 164
15/01/2020 11:40 6.6 72 256.1 292 0.0 2.7 9.7 171
15/01/2020 11:50 6.9 71 276.3 600 0.0 3.5 12.7 169
15/01/2020 12:00 7.1 71 304.5 600 0.0 2.7 9.7 164
15/01/2020 12:10 7.6 70 333.6 600 0.0 2.8 10.2 163
15/01/2020 12:20 7.4 69 338.4 600 0.0 3.2 11.5 168
15/01/2020 12:30 8.2 68 525.1 600 0.0 3.1 11.2 174
15/01/2020 12:40 8.3 67 421.3 600 0.0 3.3 12.0 164
15/01/2020 12:50 8.3 66 356.4 600 0.0 3.1 11.2 166
15/01/2020 13:00 8.1 67 263.8 600 0.0 2.7 9.9 162
15/01/2020 13:10 8.0 67 234.8 316 0.0 3.6 13.0 168
15/01/2020 13:20 7.9 68 141.1 0 0.0 2.5 9.0 163
15/01/2020 13:30 7.9 68 140.8 0 0.0 2.3 8.2 163
15/01/2020 13:40 7.9 68 144.2 0 0.0 2.6 9.3 161
15/01/2020 13:50 7.7 68 122.7 0 0.0 2.8 9.9 163
15/01/2020 14:00 7.7 69 156.7 0 0.0 1.5 5.5 152
15/01/2020 14:10 8.0 69 196.2 224 0.0 1.7 6.2 156
15/01/2020 14:20 8.2 68 241.2 520 0.0 1.6 5.9 155
15/01/2020 14:30 8.6 67 242.8 600 0.0 1.1 4.0 143
15/01/2020 14:40 8.7 66 334.2 600 0.0 1.7 6.0 155
15/01/2020 14:50 9.3 64 191.3 276 0.0 0.9 3.2 140
15/01/2020 15:00 8.4 66 121.9 0 0.0 1.7 6.1 176
15/01/2020 15:10 8.3 67 118.4 0 0.0 1.0 3.6 193
15/01/2020 15:20 8.1 67 98.9 0 0.0 1.9 6.7 192
15/01/2020 15:30 7.9 68 85.3 0 0.0 1.6 5.9 172
15/01/2020 15:40 7.9 68 67.0 0 0.0 1.4 5.0 170
15/01/2020 15:50 8.0 68 60.1 0 0.0 1.3 4.8 172
15/01/2020 16:00 7.8 69 68.0 0 0.0 1.0 3.6 167
15/01/2020 16:10 7.7 70 59.5 0 0.0 1.3 4.7 172
15/01/2020 16:20 7.6 71 50.7 30 0.0 0.2 0.8 191
15/01/2020 16:30 7.5 72 51.0 600 0.0 0.3 0.9 133
15/01/2020 16:40 7.8 69 32.5 302 0.0 0.4 1.3 91
15/01/2020 16:50 7.7 71 22.3 0 0.0 0.5 1.8 66
15/01/2020 17:00 7.4 72 15.8 0 0.0 0.1 0.3 173
15/01/2020 17:10 7.3 73 0.0 0 0.0 0.0 0.0 0
15/01/2020 17:20 6.8 75 0.0 0 0.0 0.0 0.0 0
15/01/2020 17:30 6.7 76 0.0 0 0.0 0.0 0.0 0
15/01/2020 17:40 6.5 77 0.0 0 0.0 0.8 2.7 352
15/01/2020 17:50 6.7 75 0.0 0 0.0 0.1 0.4 334
15/01/2020 18:00 6.8 74 0.0 0 0.0 0.4 1.3 347
15/01/2020 18:10 6.2 78 0.0 0 0.0 0.5 1.8 288
15/01/2020 18:20 6.5 76 0.0 0 0.0 0.7 2.4 353
15/01/2020 18:30 6.2 78 0.0 0 0.0 1.0 3.6 358
15/01/2020 18:40 6.3 77 0.0 0 0.0 0.7 2.7 359
15/01/2020 18:50 6.7 75 0.0 0 0.0 0.3 1.2 343
15/01/2020 19:00 6.6 75 0.0 0 0.0 0.6 2.1 24
15/01/2020 19:10 6.4 76 0.0 0 0.0 0.5 1.8 72
15/01/2020 19:20 6.1 77 0.0 0 0.0 0.5 1.9 326
15/01/2020 19:30 6.7 74 0.0 0 0.0 0.6 2.2 346
15/01/2020 19:40 6.5 75 0.0 0 0.0 0.5 1.8 297
15/01/2020 19:50 6.6 74 0.0 0 0.0 0.1 0.4 155
15/01/2020 20:00 6.4 75 0.0 0 0.0 0.2 0.6 339
15/01/2020 20:10 5.8 78 0.0 0 0.0 0.9 3.3 21
15/01/2020 20:20 5.4 80 0.0 0 0.0 1.0 3.7 344
15/01/2020 20:30 5.1 82 0.0 0 0.0 1.1 3.9 352
15/01/2020 20:40 5.2 82 0.0 0 0.0 1.4 5.0 0
15/01/2020 20:50 5.0 82 0.0 0 0.0 0.4 1.5 58
15/01/2020 21:00 4.5 84 0.0 0 0.0 0.4 1.3 95
15/01/2020 21:10 4.3 85 0.0 0 0.0 0.9 3.4 15
15/01/2020 21:20 4.2 85 0.0 0 0.0 1.2 4.4 20
15/01/2020 21:30 4.0 87 0.0 0 0.0 0.8 2.8 19
15/01/2020 21:40 4.1 86 0.0 0 0.0 1.3 4.6 2
15/01/2020 21:50 4.4 86 0.0 0 0.0 0.9 3.2 20
15/01/2020 22:00 4.4 86 0.0 0 0.0 0.3 1.1 130
15/01/2020 22:10 3.7 88 0.0 0 0.0 0.8 2.9 16
15/01/2020 22:20 4.1 88 0.0 0 0.0 0.0 0.0 73
15/01/2020 22:30 4.1 88 0.0 0 0.0 0.0 0.0 19
15/01/2020 22:40 4.6 86 0.0 0 0.0 0.2 0.6 194
15/01/2020 22:50 5.0 85 0.0 0 0.0 0.2 0.5 161
15/01/2020 23:00 3.8 88 0.0 0 0.0 0.2 0.5 204
15/01/2020 23:10 4.0 89 0.0 0 0.0 0.5 1.9 281
15/01/2020 23:20 4.3 88 0.0 0 0.0 0.3 1.0 103
15/01/2020 23:30 4.2 88 0.0 0 0.0 0.4 1.4 149
15/01/2020 23:40 4.6 86 0.0 0 0.0 0.2 0.8 126
15/01/2020 23:50 4.1 88 0.0 0 0.0 0.1 0.5 132
Anterior Página 1 de 1 Siguiente

NOTA: Tipo de datos según el color:
   - Valores diarios o 10 minutos correctos
   - Valores diarios calculados a partir de un número de datos 10 minutos menor que 144 y mayor que 120, o de un número de datos semihorarios menor que 48 y mayor que 40 (caso de las estaciones de Riegos de Navarra y del MARM)
   - Valores diez minutos estimados


Contacto        Enlaces        Aviso legal